sensor_id;sensor_type;location;lat;lon;timestamp;P1;durP1;ratioP1;P2;durP2;ratioP2
19207;SDS011;9737;59.466;18.036;2023-05-13T00:01:20;10.60;;;6.07;;
19207;SDS011;9737;59.466;18.036;2023-05-13T00:03:48;11.88;;;6.10;;
19207;SDS011;9737;59.466;18.036;2023-05-13T00:06:16;13.88;;;6.25;;
19207;SDS011;9737;59.466;18.036;2023-05-13T00:08:44;9.90;;;6.22;;
19207;SDS011;9737;59.466;18.036;2023-05-13T00:11:12;14.88;;;6.25;;
19207;SDS011;9737;59.466;18.036;2023-05-13T00:13:40;11.52;;;6.40;;
19207;SDS011;9737;59.466;18.036;2023-05-13T00:16:09;16.60;;;6.60;;
19207;SDS011;9737;59.466;18.036;2023-05-13T00:18:37;12.07;;;6.03;;
19207;SDS011;9737;59.466;18.036;2023-05-13T00:21:05;16.15;;;6.55;;
19207;SDS011;9737;59.466;18.036;2023-05-13T00:23:33;10.75;;;6.50;;
19207;SDS011;9737;59.466;18.036;2023-05-13T00:26:01;11.13;;;6.22;;
19207;SDS011;9737;59.466;18.036;2023-05-13T00:28:29;14.65;;;6.32;;
19207;SDS011;9737;59.466;18.036;2023-05-13T00:30:56;10.60;;;6.00;;
19207;SDS011;9737;59.466;18.036;2023-05-13T00:33:25;15.48;;;6.32;;
19207;SDS011;9737;59.466;18.036;2023-05-13T00:35:53;9.68;;;6.20;;
19207;SDS011;9737;59.466;18.036;2023-05-13T00:38:21;10.77;;;6.32;;
19207;SDS011;9737;59.466;18.036;2023-05-13T00:40:49;11.57;;;6.57;;
19207;SDS011;9737;59.466;18.036;2023-05-13T00:43:17;12.50;;;6.30;;
19207;SDS011;9737;59.466;18.036;2023-05-13T00:45:45;10.70;;;6.53;;
19207;SDS011;9737;59.466;18.036;2023-05-13T00:48:13;11.40;;;6.85;;
19207;SDS011;9737;59.466;18.036;2023-05-13T00:50:42;11.75;;;7.13;;
19207;SDS011;9737;59.466;18.036;2023-05-13T00:53:11;10.75;;;6.43;;
19207;SDS011;9737;59.466;18.036;2023-05-13T00:55:40;22.42;;;7.03;;
19207;SDS011;9737;59.466;18.036;2023-05-13T00:58:09;12.55;;;6.53;;
19207;SDS011;9737;59.466;18.036;2023-05-13T01:00:38;10.38;;;6.78;;
19207;SDS011;9737;59.466;18.036;2023-05-13T01:03:11;10.32;;;7.03;;
19207;SDS011;9737;59.466;18.036;2023-05-13T01:05:46;11.32;;;6.95;;
19207;SDS011;9737;59.466;18.036;2023-05-13T01:08:21;11.27;;;7.13;;
19207;SDS011;9737;59.466;18.036;2023-05-13T01:10:56;11.68;;;7.55;;
19207;SDS011;9737;59.466;18.036;2023-05-13T01:13:30;11.25;;;7.05;;
19207;SDS011;9737;59.466;18.036;2023-05-13T01:16:02;12.10;;;6.75;;
19207;SDS011;9737;59.466;18.036;2023-05-13T01:18:39;11.38;;;7.57;;
19207;SDS011;9737;59.466;18.036;2023-05-13T01:21:11;10.68;;;7.00;;
19207;SDS011;9737;59.466;18.036;2023-05-13T01:23:40;14.52;;;7.07;;
19207;SDS011;9737;59.466;18.036;2023-05-13T01:26:08;14.82;;;7.07;;
19207;SDS011;9737;59.466;18.036;2023-05-13T01:28:36;17.52;;;7.25;;
19207;SDS011;9737;59.466;18.036;2023-05-13T01:31:04;11.65;;;6.68;;
19207;SDS011;9737;59.466;18.036;2023-05-13T01:33:36;10.40;;;7.32;;
19207;SDS011;9737;59.466;18.036;2023-05-13T01:36:06;18.65;;;6.90;;
19207;SDS011;9737;59.466;18.036;2023-05-13T01:38:35;11.98;;;6.78;;
19207;SDS011;9737;59.466;18.036;2023-05-13T01:41:07;16.67;;;7.22;;
19207;SDS011;9737;59.466;18.036;2023-05-13T01:43:34;10.63;;;7.43;;
19207;SDS011;9737;59.466;18.036;2023-05-13T01:46:10;11.13;;;7.43;;
19207;SDS011;9737;59.466;18.036;2023-05-13T01:48:38;14.68;;;7.80;;
19207;SDS011;9737;59.466;18.036;2023-05-13T01:51:06;21.08;;;8.38;;
19207;SDS011;9737;59.466;18.036;2023-05-13T01:53:34;13.27;;;8.02;;
19207;SDS011;9737;59.466;18.036;2023-05-13T01:56:02;12.90;;;7.72;;
19207;SDS011;9737;59.466;18.036;2023-05-13T01:58:31;11.40;;;8.05;;
19207;SDS011;9737;59.466;18.036;2023-05-13T02:00:59;11.75;;;7.63;;
19207;SDS011;9737;59.466;18.036;2023-05-13T02:03:27;12.10;;;7.25;;
19207;SDS011;9737;59.466;18.036;2023-05-13T02:05:55;13.68;;;8.05;;
19207;SDS011;9737;59.466;18.036;2023-05-13T02:08:23;12.70;;;7.80;;
19207;SDS011;9737;59.466;18.036;2023-05-13T02:10:53;15.55;;;7.82;;
19207;SDS011;9737;59.466;18.036;2023-05-13T02:13:22;14.10;;;8.23;;
19207;SDS011;9737;59.466;18.036;2023-05-13T02:15:51;12.05;;;7.80;;
19207;SDS011;9737;59.466;18.036;2023-05-13T02:18:19;11.65;;;7.47;;
19207;SDS011;9737;59.466;18.036;2023-05-13T02:20:47;15.30;;;7.80;;
19207;SDS011;9737;59.466;18.036;2023-05-13T02:23:15;13.80;;;8.00;;
19207;SDS011;9737;59.466;18.036;2023-05-13T02:25:43;15.23;;;7.85;;
19207;SDS011;9737;59.466;18.036;2023-05-13T02:28:11;15.13;;;7.65;;
19207;SDS011;9737;59.466;18.036;2023-05-13T02:30:39;12.82;;;7.85;;
19207;SDS011;9737;59.466;18.036;2023-05-13T02:33:09;18.80;;;8.30;;
19207;SDS011;9737;59.466;18.036;2023-05-13T02:35:39;16.83;;;8.05;;
19207;SDS011;9737;59.466;18.036;2023-05-13T02:38:08;11.95;;;7.85;;
19207;SDS011;9737;59.466;18.036;2023-05-13T02:40:36;15.07;;;7.72;;
19207;SDS011;9737;59.466;18.036;2023-05-13T02:43:04;17.92;;;7.72;;
19207;SDS011;9737;59.466;18.036;2023-05-13T02:45:33;12.50;;;7.78;;
19207;SDS011;9737;59.466;18.036;2023-05-13T02:48:01;11.63;;;7.50;;
19207;SDS011;9737;59.466;18.036;2023-05-13T02:50:31;10.63;;;7.28;;
19207;SDS011;9737;59.466;18.036;2023-05-13T02:52:59;12.30;;;8.13;;
19207;SDS011;9737;59.466;18.036;2023-05-13T02:55:26;17.67;;;7.82;;
19207;SDS011;9737;59.466;18.036;2023-05-13T02:57:55;12.85;;;8.32;;
19207;SDS011;9737;59.466;18.036;2023-05-13T03:00:22;15.38;;;8.13;;
19207;SDS011;9737;59.466;18.036;2023-05-13T03:02:50;13.13;;;8.50;;
19207;SDS011;9737;59.466;18.036;2023-05-13T03:05:18;15.88;;;8.18;;
19207;SDS011;9737;59.466;18.036;2023-05-13T03:07:48;11.90;;;8.25;;
19207;SDS011;9737;59.466;18.036;2023-05-13T03:10:15;17.63;;;7.93;;
19207;SDS011;9737;59.466;18.036;2023-05-13T03:12:44;13.27;;;8.45;;
19207;SDS011;9737;59.466;18.036;2023-05-13T03:15:12;10.70;;;7.20;;
19207;SDS011;9737;59.466;18.036;2023-05-13T03:17:41;16.95;;;8.60;;
19207;SDS011;9737;59.466;18.036;2023-05-13T03:20:10;12.43;;;8.65;;
19207;SDS011;9737;59.466;18.036;2023-05-13T03:22:38;15.93;;;9.02;;
19207;SDS011;9737;59.466;18.036;2023-05-13T03:25:07;12.20;;;8.35;;
19207;SDS011;9737;59.466;18.036;2023-05-13T03:27:36;15.13;;;8.25;;
19207;SDS011;9737;59.466;18.036;2023-05-13T03:30:05;12.55;;;8.07;;
19207;SDS011;9737;59.466;18.036;2023-05-13T03:32:34;11.82;;;8.07;;
19207;SDS011;9737;59.466;18.036;2023-05-13T03:35:02;14.73;;;8.32;;
19207;SDS011;9737;59.466;18.036;2023-05-13T03:37:30;12.35;;;8.15;;
19207;SDS011;9737;59.466;18.036;2023-05-13T03:39:57;16.13;;;8.68;;
19207;SDS011;9737;59.466;18.036;2023-05-13T03:42:27;21.13;;;9.57;;
19207;SDS011;9737;59.466;18.036;2023-05-13T03:44:56;16.63;;;8.50;;
19207;SDS011;9737;59.466;18.036;2023-05-13T03:47:24;12.50;;;8.20;;
19207;SDS011;9737;59.466;18.036;2023-05-13T03:49:52;14.10;;;8.52;;
19207;SDS011;9737;59.466;18.036;2023-05-13T03:53:08;15.70;;;8.27;;
19207;SDS011;9737;59.466;18.036;2023-05-13T03:55:37;20.35;;;8.20;;
19207;SDS011;9737;59.466;18.036;2023-05-13T03:58:12;13.07;;;7.63;;
19207;SDS011;9737;59.466;18.036;2023-05-13T04:00:42;18.58;;;7.97;;
19207;SDS011;9737;59.466;18.036;2023-05-13T04:03:12;14.68;;;7.75;;
19207;SDS011;9737;59.466;18.036;2023-05-13T04:05:41;11.52;;;7.93;;
19207;SDS011;9737;59.466;18.036;2023-05-13T04:08:09;11.50;;;7.32;;
19207;SDS011;9737;59.466;18.036;2023-05-13T04:10:37;16.08;;;7.88;;
19207;SDS011;9737;59.466;18.036;2023-05-13T04:13:05;12.77;;;7.55;;
19207;SDS011;9737;59.466;18.036;2023-05-13T04:15:35;15.80;;;7.78;;
19207;SDS011;9737;59.466;18.036;2023-05-13T04:18:03;11.57;;;7.15;;
19207;SDS011;9737;59.466;18.036;2023-05-13T04:20:31;17.05;;;7.32;;
19207;SDS011;9737;59.466;18.036;2023-05-13T04:22:59;18.98;;;6.85;;
19207;SDS011;9737;59.466;18.036;2023-05-13T04:25:27;12.52;;;7.00;;
19207;SDS011;9737;59.466;18.036;2023-05-13T04:27:55;10.23;;;6.50;;
19207;SDS011;9737;59.466;18.036;2023-05-13T04:30:23;15.50;;;6.65;;
19207;SDS011;9737;59.466;18.036;2023-05-13T04:32:52;12.35;;;6.45;;
19207;SDS011;9737;59.466;18.036;2023-05-13T04:35:20;11.32;;;6.68;;
19207;SDS011;9737;59.466;18.036;2023-05-13T04:37:48;10.63;;;6.35;;
19207;SDS011;9737;59.466;18.036;2023-05-13T04:40:16;16.40;;;6.50;;
19207;SDS011;9737;59.466;18.036;2023-05-13T04:42:44;11.90;;;6.15;;
19207;SDS011;9737;59.466;18.036;2023-05-13T04:45:19;12.93;;;6.43;;
19207;SDS011;9737;59.466;18.036;2023-05-13T04:47:48;15.93;;;6.70;;
19207;SDS011;9737;59.466;18.036;2023-05-13T04:50:17;12.45;;;5.82;;
19207;SDS011;9737;59.466;18.036;2023-05-13T04:52:50;8.88;;;6.05;;
19207;SDS011;9737;59.466;18.036;2023-05-13T04:55:20;15.13;;;5.57;;
19207;SDS011;9737;59.466;18.036;2023-05-13T04:57:48;11.52;;;5.85;;
19207;SDS011;9737;59.466;18.036;2023-05-13T05:00:16;11.25;;;6.22;;
19207;SDS011;9737;59.466;18.036;2023-05-13T05:02:44;8.15;;;5.40;;
19207;SDS011;9737;59.466;18.036;2023-05-13T05:05:12;17.08;;;5.95;;
19207;SDS011;9737;59.466;18.036;2023-05-13T05:07:44;13.55;;;5.63;;
19207;SDS011;9737;59.466;18.036;2023-05-13T05:10:12;10.75;;;5.72;;
19207;SDS011;9737;59.466;18.036;2023-05-13T05:12:40;9.77;;;6.15;;
19207;SDS011;9737;59.466;18.036;2023-05-13T05:15:09;10.40;;;5.82;;
19207;SDS011;9737;59.466;18.036;2023-05-13T05:17:41;11.38;;;5.63;;
19207;SDS011;9737;59.466;18.036;2023-05-13T05:20:09;12.90;;;5.50;;
19207;SDS011;9737;59.466;18.036;2023-05-13T05:22:38;9.70;;;5.60;;
19207;SDS011;9737;59.466;18.036;2023-05-13T05:25:09;10.05;;;5.88;;
19207;SDS011;9737;59.466;18.036;2023-05-13T05:27:37;10.07;;;5.43;;
19207;SDS011;9737;59.466;18.036;2023-05-13T05:30:05;15.57;;;5.65;;
19207;SDS011;9737;59.466;18.036;2023-05-13T05:32:35;11.88;;;5.40;;
19207;SDS011;9737;59.466;18.036;2023-05-13T05:35:04;7.78;;;5.00;;
19207;SDS011;9737;59.466;18.036;2023-05-13T05:37:33;9.75;;;5.30;;
19207;SDS011;9737;59.466;18.036;2023-05-13T05:40:02;10.05;;;4.70;;
19207;SDS011;9737;59.466;18.036;2023-05-13T05:42:31;6.35;;;4.40;;
19207;SDS011;9737;59.466;18.036;2023-05-13T05:44:59;8.50;;;5.03;;
19207;SDS011;9737;59.466;18.036;2023-05-13T05:47:27;8.55;;;5.00;;
19207;SDS011;9737;59.466;18.036;2023-05-13T05:49:56;8.32;;;4.57;;
19207;SDS011;9737;59.466;18.036;2023-05-13T05:52:24;9.82;;;4.50;;
19207;SDS011;9737;59.466;18.036;2023-05-13T05:54:51;13.98;;;4.47;;
19207;SDS011;9737;59.466;18.036;2023-05-13T05:57:19;11.13;;;4.55;;
19207;SDS011;9737;59.466;18.036;2023-05-13T05:59:48;10.60;;;4.70;;
19207;SDS011;9737;59.466;18.036;2023-05-13T06:02:17;16.23;;;4.30;;
19207;SDS011;9737;59.466;18.036;2023-05-13T06:04:45;8.55;;;4.38;;
19207;SDS011;9737;59.466;18.036;2023-05-13T06:07:12;8.18;;;4.40;;
19207;SDS011;9737;59.466;18.036;2023-05-13T06:09:41;7.45;;;4.22;;
19207;SDS011;9737;59.466;18.036;2023-05-13T06:12:08;5.65;;;4.13;;
19207;SDS011;9737;59.466;18.036;2023-05-13T06:14:36;15.18;;;4.07;;
19207;SDS011;9737;59.466;18.036;2023-05-13T06:17:05;12.25;;;4.30;;
19207;SDS011;9737;59.466;18.036;2023-05-13T06:19:33;9.82;;;3.95;;
19207;SDS011;9737;59.466;18.036;2023-05-13T06:22:01;12.55;;;4.40;;
19207;SDS011;9737;59.466;18.036;2023-05-13T06:24:29;5.95;;;3.90;;
19207;SDS011;9737;59.466;18.036;2023-05-13T06:26:57;16.63;;;4.35;;
19207;SDS011;9737;59.466;18.036;2023-05-13T06:29:25;7.18;;;4.07;;
19207;SDS011;9737;59.466;18.036;2023-05-13T06:31:52;9.23;;;4.00;;
19207;SDS011;9737;59.466;18.036;2023-05-13T06:34:22;8.02;;;4.00;;
19207;SDS011;9737;59.466;18.036;2023-05-13T06:36:49;11.98;;;3.97;;
19207;SDS011;9737;59.466;18.036;2023-05-13T06:39:17;5.95;;;4.28;;
19207;SDS011;9737;59.466;18.036;2023-05-13T06:41:45;10.13;;;3.83;;
19207;SDS011;9737;59.466;18.036;2023-05-13T06:44:13;12.65;;;4.00;;
19207;SDS011;9737;59.466;18.036;2023-05-13T06:46:43;5.10;;;3.75;;
19207;SDS011;9737;59.466;18.036;2023-05-13T06:49:12;13.73;;;4.10;;
19207;SDS011;9737;59.466;18.036;2023-05-13T06:51:41;9.50;;;3.83;;
19207;SDS011;9737;59.466;18.036;2023-05-13T06:54:09;7.10;;;4.03;;
19207;SDS011;9737;59.466;18.036;2023-05-13T06:56:36;8.35;;;3.72;;
19207;SDS011;9737;59.466;18.036;2023-05-13T06:59:04;10.43;;;3.70;;
19207;SDS011;9737;59.466;18.036;2023-05-13T07:01:32;9.55;;;3.70;;
19207;SDS011;9737;59.466;18.036;2023-05-13T07:04:00;8.38;;;3.60;;
19207;SDS011;9737;59.466;18.036;2023-05-13T07:06:28;12.77;;;3.72;;
19207;SDS011;9737;59.466;18.036;2023-05-13T07:08:57;7.57;;;3.72;;
19207;SDS011;9737;59.466;18.036;2023-05-13T07:11:25;5.45;;;3.47;;
19207;SDS011;9737;59.466;18.036;2023-05-13T07:13:54;7.18;;;3.50;;
19207;SDS011;9737;59.466;18.036;2023-05-13T07:16:22;6.65;;;3.58;;
19207;SDS011;9737;59.466;18.036;2023-05-13T07:18:50;4.55;;;3.53;;
19207;SDS011;9737;59.466;18.036;2023-05-13T07:21:19;10.32;;;3.80;;
19207;SDS011;9737;59.466;18.036;2023-05-13T07:23:47;5.50;;;3.55;;
19207;SDS011;9737;59.466;18.036;2023-05-13T07:26:16;7.72;;;3.72;;
19207;SDS011;9737;59.466;18.036;2023-05-13T07:28:44;10.55;;;3.83;;
19207;SDS011;9737;59.466;18.036;2023-05-13T07:31:12;5.25;;;3.50;;
19207;SDS011;9737;59.466;18.036;2023-05-13T07:33:40;10.20;;;3.97;;
19207;SDS011;9737;59.466;18.036;2023-05-13T07:36:07;6.38;;;3.55;;
19207;SDS011;9737;59.466;18.036;2023-05-13T07:38:35;7.68;;;3.72;;
19207;SDS011;9737;59.466;18.036;2023-05-13T07:41:03;7.47;;;3.70;;
19207;SDS011;9737;59.466;18.036;2023-05-13T07:43:32;4.40;;;3.40;;
19207;SDS011;9737;59.466;18.036;2023-05-13T07:46:00;4.93;;;3.38;;
19207;SDS011;9737;59.466;18.036;2023-05-13T07:48:28;7.50;;;3.60;;
19207;SDS011;9737;59.466;18.036;2023-05-13T07:50:57;3.50;;;2.90;;
19207;SDS011;9737;59.466;18.036;2023-05-13T07:53:24;6.35;;;3.90;;
19207;SDS011;9737;59.466;18.036;2023-05-13T07:55:52;9.15;;;3.60;;
19207;SDS011;9737;59.466;18.036;2023-05-13T07:58:22;9.20;;;3.63;;
19207;SDS011;9737;59.466;18.036;2023-05-13T08:00:51;6.65;;;3.65;;
19207;SDS011;9737;59.466;18.036;2023-05-13T08:03:19;7.25;;;3.50;;
19207;SDS011;9737;59.466;18.036;2023-05-13T08:05:47;4.88;;;2.90;;
19207;SDS011;9737;59.466;18.036;2023-05-13T08:08:15;12.50;;;3.85;;
19207;SDS011;9737;59.466;18.036;2023-05-13T08:10:43;6.07;;;2.90;;
19207;SDS011;9737;59.466;18.036;2023-05-13T08:13:11;12.30;;;3.83;;
19207;SDS011;9737;59.466;18.036;2023-05-13T08:15:39;6.38;;;3.40;;
19207;SDS011;9737;59.466;18.036;2023-05-13T08:18:09;13.55;;;3.60;;
19207;SDS011;9737;59.466;18.036;2023-05-13T08:20:37;6.05;;;3.30;;
19207;SDS011;9737;59.466;18.036;2023-05-13T08:23:06;7.72;;;3.10;;
19207;SDS011;9737;59.466;18.036;2023-05-13T08:25:33;13.45;;;3.25;;
19207;SDS011;9737;59.466;18.036;2023-05-13T08:28:01;9.00;;;3.35;;
19207;SDS011;9737;59.466;18.036;2023-05-13T08:30:29;8.48;;;3.22;;
19207;SDS011;9737;59.466;18.036;2023-05-13T08:32:58;9.20;;;3.22;;
19207;SDS011;9737;59.466;18.036;2023-05-13T08:35:27;4.43;;;3.05;;
19207;SDS011;9737;59.466;18.036;2023-05-13T08:37:55;8.32;;;3.50;;
19207;SDS011;9737;59.466;18.036;2023-05-13T08:40:23;10.57;;;3.03;;
19207;SDS011;9737;59.466;18.036;2023-05-13T08:42:51;10.00;;;3.15;;
19207;SDS011;9737;59.466;18.036;2023-05-13T08:45:22;5.78;;;3.47;;
19207;SDS011;9737;59.466;18.036;2023-05-13T08:47:55;7.38;;;3.00;;
19207;SDS011;9737;59.466;18.036;2023-05-13T08:50:28;8.73;;;2.97;;
19207;SDS011;9737;59.466;18.036;2023-05-13T08:52:57;7.28;;;3.25;;
19207;SDS011;9737;59.466;18.036;2023-05-13T08:55:26;8.60;;;3.05;;
19207;SDS011;9737;59.466;18.036;2023-05-13T08:57:55;8.90;;;3.20;;
19207;SDS011;9737;59.466;18.036;2023-05-13T09:00:23;5.43;;;2.95;;
19207;SDS011;9737;59.466;18.036;2023-05-13T09:02:51;6.75;;;2.67;;
19207;SDS011;9737;59.466;18.036;2023-05-13T09:05:18;6.95;;;2.83;;
19207;SDS011;9737;59.466;18.036;2023-05-13T09:07:49;6.28;;;2.90;;
19207;SDS011;9737;59.466;18.036;2023-05-13T09:10:17;7.07;;;2.83;;
19207;SDS011;9737;59.466;18.036;2023-05-13T09:12:47;3.42;;;2.78;;
19207;SDS011;9737;59.466;18.036;2023-05-13T09:15:17;7.13;;;3.20;;
19207;SDS011;9737;59.466;18.036;2023-05-13T09:17:47;9.05;;;2.70;;
19207;SDS011;9737;59.466;18.036;2023-05-13T09:20:18;6.40;;;2.90;;
19207;SDS011;9737;59.466;18.036;2023-05-13T09:22:48;10.25;;;3.20;;
19207;SDS011;9737;59.466;18.036;2023-05-13T09:25:20;8.98;;;2.90;;
19207;SDS011;9737;59.466;18.036;2023-05-13T09:27:50;4.00;;;2.70;;
19207;SDS011;9737;59.466;18.036;2023-05-13T09:30:23;4.78;;;2.75;;
19207;SDS011;9737;59.466;18.036;2023-05-13T09:33:03;3.83;;;2.58;;
19207;SDS011;9737;59.466;18.036;2023-05-13T09:35:33;7.05;;;2.70;;
19207;SDS011;9737;59.466;18.036;2023-05-13T09:38:11;7.53;;;2.58;;
19207;SDS011;9737;59.466;18.036;2023-05-13T09:40:43;5.63;;;2.53;;
19207;SDS011;9737;59.466;18.036;2023-05-13T09:43:16;6.90;;;2.70;;
19207;SDS011;9737;59.466;18.036;2023-05-13T09:45:45;5.75;;;2.70;;
19207;SDS011;9737;59.466;18.036;2023-05-13T09:48:13;8.15;;;2.60;;
19207;SDS011;9737;59.466;18.036;2023-05-13T09:50:47;3.35;;;2.38;;
19207;SDS011;9737;59.466;18.036;2023-05-13T09:53:18;7.82;;;2.85;;
19207;SDS011;9737;59.466;18.036;2023-05-13T09:55:49;7.82;;;2.75;;
19207;SDS011;9737;59.466;18.036;2023-05-13T09:58:19;6.03;;;3.25;;
19207;SDS011;9737;59.466;18.036;2023-05-13T10:00:47;6.43;;;2.70;;
19207;SDS011;9737;59.466;18.036;2023-05-13T10:03:15;4.90;;;2.55;;
19207;SDS011;9737;59.466;18.036;2023-05-13T10:05:43;7.20;;;2.83;;
19207;SDS011;9737;59.466;18.036;2023-05-13T10:08:12;5.72;;;2.60;;
19207;SDS011;9737;59.466;18.036;2023-05-13T10:10:43;5.93;;;2.80;;
19207;SDS011;9737;59.466;18.036;2023-05-13T10:13:13;5.82;;;2.30;;
19207;SDS011;9737;59.466;18.036;2023-05-13T10:15:47;5.28;;;2.38;;
19207;SDS011;9737;59.466;18.036;2023-05-13T10:18:16;5.47;;;2.58;;
19207;SDS011;9737;59.466;18.036;2023-05-13T10:20:45;5.95;;;3.00;;
19207;SDS011;9737;59.466;18.036;2023-05-13T10:23:18;5.05;;;2.50;;
19207;SDS011;9737;59.466;18.036;2023-05-13T10:25:49;7.97;;;2.53;;
19207;SDS011;9737;59.466;18.036;2023-05-13T10:28:17;4.40;;;2.42;;
19207;SDS011;9737;59.466;18.036;2023-05-13T10:30:45;3.95;;;2.65;;
19207;SDS011;9737;59.466;18.036;2023-05-13T10:33:16;7.07;;;2.67;;
19207;SDS011;9737;59.466;18.036;2023-05-13T10:35:47;8.77;;;2.75;;
19207;SDS011;9737;59.466;18.036;2023-05-13T10:38:27;3.53;;;2.30;;
19207;SDS011;9737;59.466;18.036;2023-05-13T10:41:11;5.57;;;2.72;;
19207;SDS011;9737;59.466;18.036;2023-05-13T10:43:55;4.43;;;2.53;;
19207;SDS011;9737;59.466;18.036;2023-05-13T10:46:24;4.13;;;2.40;;
19207;SDS011;9737;59.466;18.036;2023-05-13T10:48:54;6.70;;;2.15;;
19207;SDS011;9737;59.466;18.036;2023-05-13T10:51:23;3.58;;;2.22;;
19207;SDS011;9737;59.466;18.036;2023-05-13T10:53:52;4.32;;;2.70;;
19207;SDS011;9737;59.466;18.036;2023-05-13T10:56:22;7.63;;;2.70;;
19207;SDS011;9737;59.466;18.036;2023-05-13T10:58:57;4.45;;;2.20;;
19207;SDS011;9737;59.466;18.036;2023-05-13T11:01:27;3.97;;;2.45;;
19207;SDS011;9737;59.466;18.036;2023-05-13T11:03:57;3.70;;;2.28;;
19207;SDS011;9737;59.466;18.036;2023-05-13T11:06:28;6.82;;;2.38;;
19207;SDS011;9737;59.466;18.036;2023-05-13T11:09:03;7.22;;;2.45;;
19207;SDS011;9737;59.466;18.036;2023-05-13T11:11:34;4.53;;;2.30;;
19207;SDS011;9737;59.466;18.036;2023-05-13T11:14:06;5.82;;;2.55;;
19207;SDS011;9737;59.466;18.036;2023-05-13T11:16:43;5.22;;;2.30;;
19207;SDS011;9737;59.466;18.036;2023-05-13T11:19:17;5.63;;;2.10;;
19207;SDS011;9737;59.466;18.036;2023-05-13T11:21:48;5.50;;;2.20;;
19207;SDS011;9737;59.466;18.036;2023-05-13T11:24:19;7.00;;;2.28;;
19207;SDS011;9737;59.466;18.036;2023-05-13T11:26:50;4.20;;;2.28;;
19207;SDS011;9737;59.466;18.036;2023-05-13T11:29:26;9.90;;;2.35;;
19207;SDS011;9737;59.466;18.036;2023-05-13T11:31:55;4.35;;;2.05;;
19207;SDS011;9737;59.466;18.036;2023-05-13T11:34:26;6.60;;;2.00;;
19207;SDS011;9737;59.466;18.036;2023-05-13T11:36:55;6.97;;;2.53;;
19207;SDS011;9737;59.466;18.036;2023-05-13T11:39:24;3.55;;;2.25;;
19207;SDS011;9737;59.466;18.036;2023-05-13T11:41:54;4.65;;;2.15;;
19207;SDS011;9737;59.466;18.036;2023-05-13T11:44:23;3.20;;;2.17;;
19207;SDS011;9737;59.466;18.036;2023-05-13T11:46:52;4.68;;;2.20;;
19207;SDS011;9737;59.466;18.036;2023-05-13T11:49:31;4.50;;;2.30;;
19207;SDS011;9737;59.466;18.036;2023-05-13T11:51:59;5.57;;;2.30;;
19207;SDS011;9737;59.466;18.036;2023-05-13T11:54:27;6.13;;;2.28;;
19207;SDS011;9737;59.466;18.036;2023-05-13T11:56:56;5.10;;;2.08;;
19207;SDS011;9737;59.466;18.036;2023-05-13T11:59:24;7.03;;;2.50;;
19207;SDS011;9737;59.466;18.036;2023-05-13T12:02:04;5.03;;;2.15;;
19207;SDS011;9737;59.466;18.036;2023-05-13T12:04:31;5.15;;;2.45;;
19207;SDS011;9737;59.466;18.036;2023-05-13T12:06:59;5.28;;;2.42;;
19207;SDS011;9737;59.466;18.036;2023-05-13T12:09:27;4.93;;;2.00;;
19207;SDS011;9737;59.466;18.036;2023-05-13T12:11:57;4.45;;;1.92;;
19207;SDS011;9737;59.466;18.036;2023-05-13T12:14:25;10.55;;;3.42;;
19207;SDS011;9737;59.466;18.036;2023-05-13T12:16:53;8.77;;;2.35;;
19207;SDS011;9737;59.466;18.036;2023-05-13T12:19:22;4.18;;;2.40;;
19207;SDS011;9737;59.466;18.036;2023-05-13T12:21:50;4.90;;;2.33;;
19207;SDS011;9737;59.466;18.036;2023-05-13T12:24:18;4.55;;;2.17;;
19207;SDS011;9737;59.466;18.036;2023-05-13T12:26:46;5.72;;;2.40;;
19207;SDS011;9737;59.466;18.036;2023-05-13T12:29:16;3.92;;;2.22;;
19207;SDS011;9737;59.466;18.036;2023-05-13T12:34:29;5.30;;;2.00;;
19207;SDS011;9737;59.466;18.036;2023-05-13T12:37:07;3.35;;;2.25;;
19207;SDS011;9737;59.466;18.036;2023-05-13T12:39:36;3.58;;;2.25;;
19207;SDS011;9737;59.466;18.036;2023-05-13T12:42:04;4.60;;;2.13;;
19207;SDS011;9737;59.466;18.036;2023-05-13T12:44:33;5.65;;;2.10;;
19207;SDS011;9737;59.466;18.036;2023-05-13T12:47:01;4.10;;;2.80;;
19207;SDS011;9737;59.466;18.036;2023-05-13T12:49:30;5.97;;;3.22;;
19207;SDS011;9737;59.466;18.036;2023-05-13T12:51:57;4.43;;;2.88;;
19207;SDS011;9737;59.466;18.036;2023-05-13T12:54:25;7.80;;;3.72;;
19207;SDS011;9737;59.466;18.036;2023-05-13T12:56:53;6.68;;;2.40;;
19207;SDS011;9737;59.466;18.036;2023-05-13T12:59:21;6.38;;;2.65;;
19207;SDS011;9737;59.466;18.036;2023-05-13T13:01:52;3.88;;;2.20;;
19207;SDS011;9737;59.466;18.036;2023-05-13T13:04:19;5.38;;;2.53;;
19207;SDS011;9737;59.466;18.036;2023-05-13T13:06:48;6.13;;;2.28;;
19207;SDS011;9737;59.466;18.036;2023-05-13T13:09:16;7.63;;;2.53;;
19207;SDS011;9737;59.466;18.036;2023-05-13T13:11:44;4.38;;;2.30;;
19207;SDS011;9737;59.466;18.036;2023-05-13T13:14:13;4.75;;;2.65;;
19207;SDS011;9737;59.466;18.036;2023-05-13T13:16:40;6.53;;;2.20;;
19207;SDS011;9737;59.466;18.036;2023-05-13T13:19:10;6.97;;;2.40;;
19207;SDS011;9737;59.466;18.036;2023-05-13T13:21:38;8.65;;;2.45;;
19207;SDS011;9737;59.466;18.036;2023-05-13T13:24:06;8.30;;;2.45;;
19207;SDS011;9737;59.466;18.036;2023-05-13T13:26:34;4.78;;;2.42;;
19207;SDS011;9737;59.466;18.036;2023-05-13T13:29:02;8.27;;;2.17;;
19207;SDS011;9737;59.466;18.036;2023-05-13T13:31:29;5.30;;;2.55;;
19207;SDS011;9737;59.466;18.036;2023-05-13T13:33:57;4.72;;;2.10;;
19207;SDS011;9737;59.466;18.036;2023-05-13T13:36:30;6.00;;;2.30;;
19207;SDS011;9737;59.466;18.036;2023-05-13T13:38:59;5.80;;;2.35;;
19207;SDS011;9737;59.466;18.036;2023-05-13T13:41:26;3.72;;;2.28;;
19207;SDS011;9737;59.466;18.036;2023-05-13T13:43:54;6.15;;;2.80;;
19207;SDS011;9737;59.466;18.036;2023-05-13T13:46:22;7.05;;;2.75;;
19207;SDS011;9737;59.466;18.036;2023-05-13T13:48:50;8.40;;;2.60;;
19207;SDS011;9737;59.466;18.036;2023-05-13T13:51:18;4.45;;;2.30;;
19207;SDS011;9737;59.466;18.036;2023-05-13T13:53:47;3.85;;;2.10;;
19207;SDS011;9737;59.466;18.036;2023-05-13T13:56:15;3.35;;;1.92;;
19207;SDS011;9737;59.466;18.036;2023-05-13T13:58:43;5.10;;;2.40;;
19207;SDS011;9737;59.466;18.036;2023-05-13T14:01:14;6.82;;;2.20;;
19207;SDS011;9737;59.466;18.036;2023-05-13T14:03:42;6.72;;;2.30;;
19207;SDS011;9737;59.466;18.036;2023-05-13T14:06:10;6.65;;;2.33;;
19207;SDS011;9737;59.466;18.036;2023-05-13T14:08:38;7.10;;;2.55;;
19207;SDS011;9737;59.466;18.036;2023-05-13T14:11:07;4.00;;;2.50;;
19207;SDS011;9737;59.466;18.036;2023-05-13T14:13:35;3.35;;;2.17;;
19207;SDS011;9737;59.466;18.036;2023-05-13T14:16:03;10.88;;;2.00;;
19207;SDS011;9737;59.466;18.036;2023-05-13T14:18:31;4.85;;;2.13;;
19207;SDS011;9737;59.466;18.036;2023-05-13T14:20:59;4.18;;;2.40;;
19207;SDS011;9737;59.466;18.036;2023-05-13T14:23:27;4.88;;;2.25;;
19207;SDS011;9737;59.466;18.036;2023-05-13T14:25:55;5.95;;;2.28;;
19207;SDS011;9737;59.466;18.036;2023-05-13T14:28:24;4.95;;;2.30;;
19207;SDS011;9737;59.466;18.036;2023-05-13T14:30:52;3.33;;;2.35;;
19207;SDS011;9737;59.466;18.036;2023-05-13T14:33:20;8.48;;;2.20;;
19207;SDS011;9737;59.466;18.036;2023-05-13T14:35:48;5.00;;;2.22;;
19207;SDS011;9737;59.466;18.036;2023-05-13T14:38:16;8.18;;;2.50;;
19207;SDS011;9737;59.466;18.036;2023-05-13T14:40:44;4.60;;;2.33;;
19207;SDS011;9737;59.466;18.036;2023-05-13T14:43:12;4.93;;;2.10;;
19207;SDS011;9737;59.466;18.036;2023-05-13T14:45:41;5.95;;;2.38;;
19207;SDS011;9737;59.466;18.036;2023-05-13T14:48:09;4.78;;;2.30;;
19207;SDS011;9737;59.466;18.036;2023-05-13T14:50:37;3.58;;;2.10;;
19207;SDS011;9737;59.466;18.036;2023-05-13T14:53:07;6.15;;;2.05;;
19207;SDS011;9737;59.466;18.036;2023-05-13T14:55:35;3.78;;;2.20;;
19207;SDS011;9737;59.466;18.036;2023-05-13T14:58:04;4.82;;;2.30;;